Time,TemperatureF,DewpointF,PressureIn,WindDirection,WindDirectionDegrees,WindSpeedMPH,WindSpeedGustMPH,Humidity,HourlyPrecipIn,Conditions,Clouds,dailyrainin,SoftwareType,DateUTC
2013-05-28 00:00:00,51.3,48.4,29.82,North,0,0.0,0.0,90,0.00,,,-99.99,VWS V12.07,2013-05-28 05:00:00,
2013-05-28 00:11:00,51.3,48.4,29.79,North,0,0.0,0.0,90,0.00,,,-99.99,VWS V12.07,2013-05-28 05:11:00,
2013-05-28 00:20:00,51.3,48.4,29.79,North,0,0.0,0.0,90,0.00,,,-99.99,VWS V12.07,2013-05-28 05:20:00,
2013-05-28 00:25:00,51.3,48.4,29.79,North,0,0.0,0.0,90,0.00,,,-99.99,VWS V12.07,2013-05-28 05:25:00,
2013-05-28 00:30:00,51.3,48.4,29.79,North,0,0.0,0.0,90,0.00,,,-99.99,VWS V12.07,2013-05-28 05:30:00,
2013-05-28 00:40:00,51.4,48.6,29.79,North,0,0.0,0.0,90,0.00,,,-99.99,VWS V12.07,2013-05-28 05:40:00,
2013-05-28 00:45:00,51.4,48.6,29.79,North,0,0.0,0.0,90,0.00,,,-99.99,VWS V12.07,2013-05-28 05:45:00,
2013-05-28 00:50:00,51.4,48.6,29.79,North,0,0.0,0.0,90,0.00,,,-99.99,VWS V12.07,2013-05-28 05:50:00,
2013-05-28 00:55:00,51.4,48.6,29.79,North,0,0.0,0.0,90,0.00,,,-99.99,VWS V12.07,2013-05-28 05:55:00,
2013-05-28 01:00:00,51.4,48.6,29.79,North,0,0.0,0.0,90,0.00,,,-99.99,VWS V12.07,2013-05-28 06:00:00,
2013-05-28 01:05:00,51.4,48.6,29.79,North,0,0.0,0.0,90,0.00,,,-99.99,VWS V12.07,2013-05-28 06:05:00,
2013-05-28 01:10:00,51.4,48.6,29.79,North,0,0.0,0.0,90,0.00,,,-99.99,VWS V12.07,2013-05-28 06:10:00,
2013-05-28 01:15:00,51.4,48.6,29.79,North,0,0.0,0.0,90,0.00,,,-99.99,VWS V12.07,2013-05-28 06:15:00,
2013-05-28 01:20:00,51.4,48.6,29.76,North,0,0.0,0.0,90,0.00,,,-99.99,VWS V12.07,2013-05-28 06:20:00,
2013-05-28 01:30:00,51.3,48.4,29.76,North,0,0.0,0.0,90,0.00,,,-99.99,VWS V12.07,2013-05-28 06:30:00,
2013-05-28 01:35:00,51.3,48.4,29.76,North,0,0.0,0.0,90,0.00,,,-99.99,VWS V12.07,2013-05-28 06:35:00,
2013-05-28 01:40:00,51.3,48.4,29.76,North,0,0.0,0.0,90,0.00,,,-99.99,VWS V12.07,2013-05-28 06:40:00,
2013-05-28 01:45:00,51.3,48.7,29.76,North,0,0.0,0.0,91,0.00,,,-99.99,VWS V12.07,2013-05-28 06:45:00,
2013-05-28 01:50:00,51.3,48.7,29.76,North,0,0.0,0.0,91,0.00,,,-99.99,VWS V12.07,2013-05-28 06:50:00,
2013-05-28 02:00:00,51.3,48.7,29.76,North,0,0.0,0.0,91,0.00,,,-99.99,VWS V12.07,2013-05-28 07:00:00,
2013-05-28 02:05:00,51.4,48.9,29.76,North,0,0.0,0.0,91,0.00,,,-99.99,VWS V12.07,2013-05-28 07:05:00,
2013-05-28 02:10:00,51.4,48.9,29.76,North,0,0.0,0.0,91,0.00,,,-99.99,VWS V12.07,2013-05-28 07:10:00,
2013-05-28 02:15:00,51.4,48.9,29.76,North,0,0.0,0.0,91,0.00,,,-99.99,VWS V12.07,2013-05-28 07:15:00,
2013-05-28 02:20:00,51.4,48.9,29.73,North,0,0.0,0.0,91,0.00,,,-99.99,VWS V12.07,2013-05-28 07:20:00,
2013-05-28 02:26:00,51.6,49.1,29.73,North,0,0.0,0.0,91,0.00,,,-99.99,VWS V12.07,2013-05-28 07:26:00,
2013-05-28 02:35:00,51.6,49.4,29.73,North,0,0.0,0.0,92,0.00,,,-99.99,VWS V12.07,2013-05-28 07:35:00,
2013-05-28 02:40:00,51.6,49.4,29.73,North,0,0.0,0.0,92,0.00,,,-99.99,VWS V12.07,2013-05-28 07:40:00,
2013-05-28 02:45:00,51.6,49.4,29.73,North,0,0.0,0.0,92,0.00,,,-99.99,VWS V12.07,2013-05-28 07:45:00,
2013-05-28 02:55:00,51.6,49.4,29.73,North,0,0.0,0.0,92,0.00,,,-99.99,VWS V12.07,2013-05-28 07:55:00,
2013-05-28 03:00:00,51.6,49.4,29.73,North,0,0.0,0.0,92,0.00,,,-99.99,VWS V12.07,2013-05-28 08:00:00,
2013-05-28 03:10:00,51.6,49.4,29.73,North,0,0.0,0.0,92,0.00,,,-99.99,VWS V12.07,2013-05-28 08:10:00,
2013-05-28 03:20:00,51.8,49.5,29.73,North,0,0.0,0.0,92,0.00,,,-99.99,VWS V12.07,2013-05-28 08:20:00,
2013-05-28 03:25:00,51.8,49.5,29.73,North,0,0.0,0.0,92,0.00,,,-99.99,VWS V12.07,2013-05-28 08:25:00,
2013-05-28 03:30:00,51.8,49.5,29.73,North,0,0.0,0.0,92,0.00,,,-99.99,VWS V12.07,2013-05-28 08:30:00,
2013-05-28 03:35:00,51.8,49.5,29.73,North,0,0.0,0.0,92,0.04,,,-99.99,VWS V12.07,2013-05-28 08:35:00,
2013-05-28 03:45:00,51.8,49.5,29.73,North,0,0.0,0.0,92,0.04,,,-99.99,VWS V12.07,2013-05-28 08:45:00,
2013-05-28 03:50:00,51.8,49.5,29.73,North,0,0.0,0.0,92,0.04,,,-99.99,VWS V12.07,2013-05-28 08:50:00,
2013-05-28 03:55:00,51.8,49.5,29.73,North,0,0.0,0.0,92,0.08,,,-99.99,VWS V12.07,2013-05-28 08:55:00,
2013-05-28 04:00:00,51.8,49.5,29.73,North,0,0.0,0.0,92,0.12,,,-99.99,VWS V12.07,2013-05-28 09:00:00,
2013-05-28 04:06:00,51.6,49.7,29.73,North,0,0.0,0.0,93,0.12,,,-99.99,VWS V12.07,2013-05-28 09:06:00,
2013-05-28 04:15:00,51.6,49.7,29.73,North,0,0.0,0.0,93,0.20,,,-99.99,VWS V12.07,2013-05-28 09:15:00,
2013-05-28 04:20:00,51.6,49.7,29.70,North,0,0.0,0.0,93,0.20,,,-99.99,VWS V12.07,2013-05-28 09:20:00,
2013-05-28 04:25:00,51.6,49.7,29.70,North,0,0.0,0.0,93,0.20,,,-99.99,VWS V12.07,2013-05-28 09:25:00,
2013-05-28 04:30:00,51.6,49.7,29.70,North,0,0.0,0.0,93,0.20,,,-99.99,VWS V12.07,2013-05-28 09:30:00,
2013-05-28 04:36:00,51.6,49.7,29.73,North,0,0.0,0.0,93,0.20,,,-99.99,VWS V12.07,2013-05-28 09:36:00,
2013-05-28 04:45:00,51.8,49.8,29.73,North,0,0.0,0.0,93,0.24,,,-99.99,VWS V12.07,2013-05-28 09:45:00,
2013-05-28 04:50:00,51.8,49.8,29.70,North,0,0.0,0.0,93,0.24,,,-99.99,VWS V12.07,2013-05-28 09:50:00,
2013-05-28 04:55:00,51.6,49.7,29.70,North,0,0.0,0.0,93,0.24,,,-99.99,VWS V12.07,2013-05-28 09:55:00,
2013-05-28 05:00:00,51.6,49.7,29.70,North,0,0.0,0.0,93,0.12,,,-99.99,VWS V12.07,2013-05-28 10:00:00,
2013-05-28 05:06:00,51.6,49.7,29.70,North,0,0.0,0.0,93,0.12,,,-99.99,VWS V12.07,2013-05-28 10:06:00,
2013-05-28 05:15:00,51.6,49.7,29.70,North,0,0.0,0.0,93,0.12,,,-99.99,VWS V12.07,2013-05-28 10:15:00,
2013-05-28 05:20:00,51.6,49.7,29.70,North,0,0.0,0.0,93,0.12,,,-99.99,VWS V12.07,2013-05-28 10:20:00,
2013-05-28 05:25:00,51.6,49.7,29.70,North,0,0.0,0.0,93,0.12,,,-99.99,VWS V12.07,2013-05-28 10:25:00,
2013-05-28 05:30:00,51.6,49.7,29.70,North,0,0.0,0.0,93,0.12,,,-99.99,VWS V12.07,2013-05-28 10:30:00,
2013-05-28 05:36:00,51.8,49.8,29.70,North,0,0.0,0.0,93,0.12,,,-99.99,VWS V12.07,2013-05-28 10:36:00,
2013-05-28 05:45:00,51.8,49.8,29.70,North,0,0.0,0.0,93,0.12,,,-99.99,VWS V12.07,2013-05-28 10:45:00,
2013-05-28 05:50:00,51.8,49.8,29.70,North,0,0.0,0.0,93,0.12,,,-99.99,VWS V12.07,2013-05-28 10:50:00,
2013-05-28 05:55:00,51.8,49.8,29.70,North,0,0.0,0.0,93,0.12,,,-99.99,VWS V12.07,2013-05-28 10:55:00,
2013-05-28 06:00:00,51.8,49.8,29.70,North,0,0.0,0.0,93,0.16,,,-99.99,VWS V12.07,2013-05-28 11:00:00,
2013-05-28 06:05:00,51.8,49.8,29.70,North,0,0.0,0.0,93,0.08,,,-99.99,VWS V12.07,2013-05-28 11:05:00,
2013-05-28 06:10:00,51.8,49.8,29.70,North,0,0.0,0.0,93,0.08,,,-99.99,VWS V12.07,2013-05-28 11:10:00,
2013-05-28 06:15:00,51.8,49.8,29.70,North,0,0.0,0.0,93,0.08,,,-99.99,VWS V12.07,2013-05-28 11:15:00,
2013-05-28 06:20:00,51.8,49.8,29.67,North,0,0.0,0.0,93,0.12,,,-99.99,VWS V12.07,2013-05-28 11:20:00,
2013-05-28 06:25:00,51.8,49.8,29.67,North,0,0.0,0.0,93,0.16,,,-99.99,VWS V12.07,2013-05-28 11:25:00,
2013-05-28 06:30:00,51.8,49.8,29.67,North,0,0.0,0.0,93,0.16,,,-99.99,VWS V12.07,2013-05-28 11:30:00,
2013-05-28 06:40:00,52.0,50.0,29.70,North,0,0.0,0.0,93,0.28,,,-99.99,VWS V12.07,2013-05-28 11:40:00,
2013-05-28 06:45:00,52.0,50.0,29.70,North,0,0.0,0.0,93,0.28,,,-99.99,VWS V12.07,2013-05-28 11:45:00,
2013-05-28 06:50:00,52.0,50.3,29.70,North,0,0.0,0.0,94,0.28,,,-99.99,VWS V12.07,2013-05-28 11:50:00,
2013-05-28 06:55:00,52.2,50.5,29.70,North,0,0.0,0.0,94,0.35,,,-99.99,VWS V12.07,2013-05-28 11:55:00,
2013-05-28 08:05:00,52.9,51.2,29.65,North,0,0.0,0.0,94,0.00,,,-99.99,VWS V12.07,2013-05-28 13:05:00,
2013-05-28 08:10:00,53.2,51.6,29.65,North,0,0.0,0.0,94,0.00,,,-99.99,VWS V12.07,2013-05-28 13:10:00,
2013-05-28 08:15:00,53.4,51.7,29.65,North,0,0.0,0.0,94,0.00,,,-99.99,VWS V12.07,2013-05-28 13:15:00,
2013-05-28 08:20:00,53.6,51.9,29.67,North,0,0.0,0.0,94,0.00,,,-99.99,VWS V12.07,2013-05-28 13:20:00,
2013-05-28 08:30:00,54.1,52.5,29.67,North,0,0.0,0.0,94,0.00,,,-99.99,VWS V12.07,2013-05-28 13:30:00,
2013-05-28 08:35:00,54.5,52.8,29.67,North,0,0.0,0.0,94,0.00,,,-99.99,VWS V12.07,2013-05-28 13:35:00,
2013-05-28 08:40:00,54.7,53.3,29.67,North,0,0.0,0.0,95,0.00,,,-99.99,VWS V12.07,2013-05-28 13:40:00,
2013-05-28 08:51:00,55.2,53.8,29.67,North,0,0.0,0.0,95,0.00,,,-99.99,VWS V12.07,2013-05-28 13:51:00,
2013-05-28 09:00:00,55.6,53.9,29.67,North,0,0.0,0.0,94,0.00,,,-99.99,VWS V12.07,2013-05-28 14:00:00,
2013-05-28 09:05:00,55.6,53.9,29.67,North,0,0.0,0.0,94,0.00,,,-99.99,VWS V12.07,2013-05-28 14:05:00,
2013-05-28 09:10:00,55.8,54.1,29.67,North,0,0.0,0.0,94,0.00,,,-99.99,VWS V12.07,2013-05-28 14:10:00,
2013-05-28 09:15:00,55.8,54.1,29.67,North,0,0.0,0.0,94,0.00,,,-99.99,VWS V12.07,2013-05-28 14:15:00,
2013-05-28 09:25:00,55.9,54.2,29.65,North,0,0.0,0.0,94,0.00,,,-99.99,VWS V12.07,2013-05-28 14:25:00,
2013-05-28 09:30:00,56.1,54.4,29.65,North,0,0.0,0.0,94,0.00,,,-99.99,VWS V12.07,2013-05-28 14:30:00,
2013-05-28 09:40:00,56.7,55.0,29.65,North,0,0.0,0.0,94,0.00,,,-99.99,VWS V12.07,2013-05-28 14:40:00,
2013-05-28 09:45:00,56.8,55.4,29.65,North,0,0.0,0.0,95,0.00,,,-99.99,VWS V12.07,2013-05-28 14:45:00,
2013-05-28 10:00:00,57.2,55.5,29.65,North,0,0.0,0.0,94,0.00,,,-99.99,VWS V12.07,2013-05-28 15:00:00,
2013-05-28 10:05:00,57.2,55.5,29.65,North,0,0.0,0.0,94,0.00,,,-99.99,VWS V12.07,2013-05-28 15:05:00,
2013-05-28 10:10:00,57.6,55.8,29.65,North,0,0.0,0.0,94,0.00,,,-99.99,VWS V12.07,2013-05-28 15:10:00,
2013-05-28 10:15:00,57.6,55.8,29.65,North,0,0.0,0.0,94,0.00,,,-99.99,VWS V12.07,2013-05-28 15:15:00,
2013-05-28 10:25:00,57.7,56.0,29.65,North,0,0.0,0.0,94,0.00,,,-99.99,VWS V12.07,2013-05-28 15:25:00,
2013-05-28 10:30:00,57.9,56.5,29.65,North,0,0.0,0.0,95,0.00,,,-99.99,VWS V12.07,2013-05-28 15:30:00,
2013-05-28 10:35:00,58.1,56.7,29.65,North,0,0.0,0.0,95,0.00,,,-99.99,VWS V12.07,2013-05-28 15:35:00,
2013-05-28 10:40:00,58.5,57.0,29.65,North,0,0.0,0.0,95,0.00,,,-99.99,VWS V12.07,2013-05-28 15:40:00,
2013-05-28 10:50:00,59.0,57.6,29.65,North,0,0.0,0.0,95,0.00,,,-99.99,VWS V12.07,2013-05-28 15:50:00,
2013-05-28 10:55:00,59.4,57.9,29.65,North,0,0.0,0.0,95,0.00,,,-99.99,VWS V12.07,2013-05-28 15:55:00,
2013-05-28 11:00:00,59.9,58.5,29.65,North,0,0.0,0.0,95,0.00,,,-99.99,VWS V12.07,2013-05-28 16:00:00,
2013-05-28 11:10:00,61.2,59.7,29.65,North,0,0.0,0.0,95,0.00,,,-99.99,VWS V12.07,2013-05-28 16:10:00,
2013-05-28 11:15:00,61.7,60.3,29.65,North,0,0.0,0.0,95,0.00,,,-99.99,VWS V12.07,2013-05-28 16:15:00,
2013-05-28 11:21:00,62.2,60.8,29.65,North,0,0.0,0.0,95,0.00,,,-99.99,VWS V12.07,2013-05-28 16:21:00,
2013-05-28 11:30:00,63.3,61.9,29.65,North,0,0.0,0.0,95,0.00,,,-99.99,VWS V12.07,2013-05-28 16:30:00,
2013-05-28 11:35:00,63.7,62.2,29.65,North,0,0.0,0.0,95,0.00,,,-99.99,VWS V12.07,2013-05-28 16:35:00,
2013-05-28 11:40:00,63.5,62.0,29.65,North,0,0.0,0.0,95,0.00,,,-99.99,VWS V12.07,2013-05-28 16:40:00,
2013-05-28 11:46:00,63.7,62.2,29.65,North,0,0.0,0.0,95,0.00,,,-99.99,VWS V12.07,2013-05-28 16:46:00,
2013-05-28 11:55:00,63.7,62.2,29.65,North,0,0.0,0.0,95,0.00,,,-99.99,VWS V12.07,2013-05-28 16:55:00,
2013-05-28 12:00:00,63.7,62.2,29.65,North,0,0.0,0.0,95,0.00,,,-99.99,VWS V12.07,2013-05-28 17:00:00,
2013-05-28 12:05:00,63.9,62.4,29.65,North,0,0.0,0.0,95,0.00,,,-99.99,VWS V12.07,2013-05-28 17:05:00,
2013-05-28 12:10:00,63.9,62.4,29.65,North,0,0.0,0.0,95,0.00,,,-99.99,VWS V12.07,2013-05-28 17:10:00,
2013-05-28 12:15:00,64.0,62.6,29.65,North,0,0.0,0.0,95,0.00,,,-99.99,VWS V12.07,2013-05-28 17:15:00,
2013-05-28 12:30:00,64.9,63.5,29.65,North,0,0.0,0.0,95,0.00,,,-99.99,VWS V12.07,2013-05-28 17:30:00,
2013-05-28 12:35:00,65.1,63.7,29.65,North,0,0.0,0.0,95,0.00,,,-99.99,VWS V12.07,2013-05-28 17:35:00,
2013-05-28 12:40:00,65.5,64.0,29.65,North,0,0.0,0.0,95,0.00,,,-99.99,VWS V12.07,2013-05-28 17:40:00,
2013-05-28 12:45:00,65.7,64.2,29.65,North,0,0.0,0.0,95,0.00,,,-99.99,VWS V12.07,2013-05-28 17:45:00,
2013-05-28 12:50:00,66.4,64.9,29.65,North,0,0.0,0.0,95,0.00,,,-99.99,VWS V12.07,2013-05-28 17:50:00,
2013-05-28 13:00:00,68.0,66.5,29.65,North,0,0.0,0.0,95,0.00,,,-99.99,VWS V12.07,2013-05-28 18:00:00,
2013-05-28 13:05:00,68.9,67.4,29.65,North,0,0.0,0.0,95,0.00,,,-99.99,VWS V12.07,2013-05-28 18:05:00,
2013-05-28 13:10:00,69.3,67.8,29.65,North,0,0.0,0.0,95,0.00,,,-99.99,VWS V12.07,2013-05-28 18:10:00,
2013-05-28 13:15:00,69.6,68.1,29.65,North,0,0.0,0.0,95,0.00,,,-99.99,VWS V12.07,2013-05-28 18:15:00,
2013-05-28 13:20:00,69.8,68.0,29.65,North,0,0.0,0.0,94,0.00,,,-99.99,VWS V12.07,2013-05-28 18:20:00,
2013-05-28 13:26:00,69.6,67.8,29.65,North,0,0.0,0.0,94,0.00,,,-99.99,VWS V12.07,2013-05-28 18:26:00,
2013-05-28 13:40:00,69.3,66.5,29.65,North,0,0.0,0.0,91,0.00,,,-99.99,VWS V12.07,2013-05-28 18:40:00,
2013-05-28 13:45:00,69.1,65.7,29.65,North,0,0.0,0.0,89,0.00,,,-99.99,VWS V12.07,2013-05-28 18:45:00,
2013-05-28 13:50:00,69.1,65.4,29.65,North,0,0.0,0.0,88,0.00,,,-99.99,VWS V12.07,2013-05-28 18:50:00,
2013-05-28 14:00:00,68.9,64.6,29.65,North,0,0.0,0.0,86,0.00,,,-99.99,VWS V12.07,2013-05-28 19:00:00,
2013-05-28 14:10:00,68.7,63.7,29.65,North,0,0.0,0.0,84,0.00,,,-99.99,VWS V12.07,2013-05-28 19:10:00,
2013-05-28 14:20:00,68.7,63.3,29.65,North,0,0.0,0.0,83,0.00,,,-99.99,VWS V12.07,2013-05-28 19:20:00,
2013-05-28 14:30:00,69.1,63.7,29.65,North,0,0.0,0.0,83,0.00,,,-99.99,VWS V12.07,2013-05-28 19:30:00,
2013-05-28 14:35:00,69.3,63.5,29.65,North,0,0.0,0.0,82,0.00,,,-99.99,VWS V12.07,2013-05-28 19:35:00,
2013-05-28 14:40:00,69.3,63.5,29.65,North,0,0.0,0.0,82,0.00,,,-99.99,VWS V12.07,2013-05-28 19:40:00,
2013-05-28 14:45:00,69.4,63.4,29.65,North,0,0.0,0.0,81,0.00,,,-99.99,VWS V12.07,2013-05-28 19:45:00,
2013-05-28 14:50:00,69.6,63.5,29.65,North,0,0.0,0.0,81,0.00,,,-99.99,VWS V12.07,2013-05-28 19:50:00,
2013-05-28 14:55:00,69.6,63.5,29.65,North,0,0.0,0.0,81,0.00,,,-99.99,VWS V12.07,2013-05-28 19:55:00,
2013-05-28 15:05:00,69.3,62.8,29.65,North,0,0.0,0.0,80,0.00,,,-99.99,VWS V12.07,2013-05-28 20:05:00,
2013-05-28 15:10:00,68.9,62.5,29.65,North,0,0.0,0.0,80,0.00,,,-99.99,VWS V12.07,2013-05-28 20:10:00,
2013-05-28 15:15:00,68.7,62.3,29.65,North,0,0.0,0.0,80,0.00,,,-99.99,VWS V12.07,2013-05-28 20:15:00,
2013-05-28 15:20:00,68.4,62.0,29.65,North,0,0.0,0.0,80,0.00,,,-99.99,VWS V12.07,2013-05-28 20:20:00,
2013-05-28 15:26:00,68.2,61.8,29.65,North,0,0.0,0.0,80,0.00,,,-99.99,VWS V12.07,2013-05-28 20:26:00,
2013-05-28 15:40:00,68.0,62.0,29.65,North,0,0.0,0.0,81,0.00,,,-99.99,VWS V12.07,2013-05-28 20:40:00,
2013-05-28 15:45:00,67.8,62.1,29.65,North,0,0.0,0.0,82,0.00,,,-99.99,VWS V12.07,2013-05-28 20:45:00,
2013-05-28 15:50:00,67.8,62.1,29.65,North,0,0.0,0.0,82,0.00,,,-99.99,VWS V12.07,2013-05-28 20:50:00,
2013-05-28 15:56:00,67.8,62.1,29.65,North,0,0.0,0.0,82,0.00,,,-99.99,VWS V12.07,2013-05-28 20:56:00,
2013-05-28 16:05:00,67.8,62.1,29.65,North,0,0.0,0.0,82,0.00,,,-99.99,VWS V12.07,2013-05-28 21:05:00,
2013-05-28 16:10:00,67.8,62.5,29.65,North,0,0.0,0.0,83,0.00,,,-99.99,VWS V12.07,2013-05-28 21:10:00,
2013-05-28 16:15:00,67.6,62.3,29.65,North,0,0.0,0.0,83,0.00,,,-99.99,VWS V12.07,2013-05-28 21:15:00,
2013-05-28 16:20:00,67.6,62.3,29.65,North,0,0.0,0.0,83,0.00,,,-99.99,VWS V12.07,2013-05-28 21:20:00,
2013-05-28 16:30:00,67.5,62.5,29.65,North,0,0.0,0.0,84,0.00,,,-99.99,VWS V12.07,2013-05-28 21:30:00,
2013-05-28 16:40:00,67.5,62.8,29.65,North,0,0.0,0.0,85,0.00,,,-99.99,VWS V12.07,2013-05-28 21:40:00,
2013-05-28 16:45:00,67.5,62.8,29.65,North,0,0.0,0.0,85,0.00,,,-99.99,VWS V12.07,2013-05-28 21:45:00,
2013-05-28 16:50:00,67.5,62.8,29.65,North,0,0.0,0.0,85,0.00,,,-99.99,VWS V12.07,2013-05-28 21:50:00,
2013-05-28 17:00:00,67.6,63.3,29.65,North,0,0.0,0.0,86,0.00,,,-99.99,VWS V12.07,2013-05-28 22:00:00,
2013-05-28 17:05:00,67.6,63.3,29.65,North,0,0.0,0.0,86,0.00,,,-99.99,VWS V12.07,2013-05-28 22:05:00,
2013-05-28 17:10:00,67.6,63.3,29.65,North,0,0.0,0.0,86,0.00,,,-99.99,VWS V12.07,2013-05-28 22:10:00,
2013-05-28 17:20:00,67.8,63.8,29.65,North,0,0.0,0.0,87,0.00,,,-99.99,VWS V12.07,2013-05-28 22:20:00,
2013-05-28 17:25:00,67.8,63.8,29.65,North,0,0.0,0.0,87,0.00,,,-99.99,VWS V12.07,2013-05-28 22:25:00,
2013-05-28 17:30:00,67.8,63.8,29.65,North,0,0.0,0.0,87,0.00,,,-99.99,VWS V12.07,2013-05-28 22:30:00,
2013-05-28 17:35:00,67.8,63.8,29.65,North,0,0.0,0.0,87,0.00,,,-99.99,VWS V12.07,2013-05-28 22:35:00,
2013-05-28 17:40:00,67.8,63.8,29.65,North,0,0.0,0.0,87,0.00,,,-99.99,VWS V12.07,2013-05-28 22:40:00,
2013-05-28 17:45:00,67.8,63.8,29.65,North,0,0.0,0.0,87,0.00,,,-99.99,VWS V12.07,2013-05-28 22:45:00,
2013-05-28 17:50:00,67.8,63.8,29.65,North,0,0.0,0.0,87,0.00,,,-99.99,VWS V12.07,2013-05-28 22:50:00,
2013-05-28 17:56:00,67.8,64.1,29.65,North,0,0.0,0.0,88,0.00,,,-99.99,VWS V12.07,2013-05-28 22:56:00,
2013-05-28 18:05:00,67.8,64.1,29.65,North,0,0.0,0.0,88,0.00,,,-99.99,VWS V12.07,2013-05-28 23:05:00,
2013-05-28 18:10:00,67.8,64.1,29.65,North,0,0.0,0.0,88,0.00,,,-99.99,VWS V12.07,2013-05-28 23:10:00,
2013-05-28 18:20:00,67.8,64.1,29.65,North,0,0.0,0.0,88,0.00,,,-99.99,VWS V12.07,2013-05-28 23:20:00,
2013-05-28 18:30:00,67.8,64.1,29.65,North,0,0.0,0.0,88,0.00,,,-99.99,VWS V12.07,2013-05-28 23:30:00,
2013-05-28 18:35:00,67.8,64.1,29.65,North,0,0.0,0.0,88,0.00,,,-99.99,VWS V12.07,2013-05-28 23:35:00,
2013-05-28 18:40:00,67.8,64.1,29.65,North,0,0.0,0.0,88,0.00,,,-99.99,VWS V12.07,2013-05-28 23:40:00,
2013-05-28 18:45:00,67.8,64.1,29.65,North,0,0.0,0.0,88,0.00,,,-99.99,VWS V12.07,2013-05-28 23:45:00,
2013-05-28 18:51:00,67.6,64.0,29.65,North,0,0.0,0.0,88,0.00,,,-99.99,VWS V12.07,2013-05-28 23:51:00,
2013-05-28 19:00:00,67.6,64.3,29.65,North,0,0.0,0.0,89,0.00,,,-99.99,VWS V12.07,2013-05-29 00:00:00,
2013-05-28 19:05:00,67.6,64.3,29.62,North,0,0.0,0.0,89,0.00,,,-99.99,VWS V12.07,2013-05-29 00:05:00,
2013-05-28 19:15:00,67.5,64.1,29.62,North,0,0.0,0.0,89,0.00,,,-99.99,VWS V12.07,2013-05-29 00:15:00,
2013-05-28 19:21:00,67.5,64.1,29.62,North,0,0.0,0.0,89,0.00,,,-99.99,VWS V12.07,2013-05-29 00:21:00,
2013-05-28 19:30:00,67.5,64.1,29.62,North,0,0.0,0.0,89,0.00,,,-99.99,VWS V12.07,2013-05-29 00:30:00,
2013-05-28 19:35:00,67.5,64.1,29.62,North,0,0.0,0.0,89,0.00,,,-99.99,VWS V12.07,2013-05-29 00:35:00,
2013-05-28 19:40:00,67.5,64.1,29.62,North,0,0.0,0.0,89,0.00,,,-99.99,VWS V12.07,2013-05-29 00:40:00,
2013-05-28 19:45:00,67.5,64.1,29.62,North,0,0.0,0.0,89,0.00,,,-99.99,VWS V12.07,2013-05-29 00:45:00,
2013-05-28 19:51:00,67.5,64.1,29.62,North,0,0.0,0.0,89,0.00,,,-99.99,VWS V12.07,2013-05-29 00:51:00,
2013-05-28 20:00:00,67.3,63.9,29.62,North,0,0.0,0.0,89,0.00,,,-99.99,VWS V12.07,2013-05-29 01:00:00,
2013-05-28 20:05:00,67.3,64.2,29.62,North,0,0.0,0.0,90,0.00,,,-99.99,VWS V12.07,2013-05-29 01:05:00,
2013-05-28 20:10:00,67.3,64.2,29.62,North,0,0.0,0.0,90,0.00,,,-99.99,VWS V12.07,2013-05-29 01:10:00,
2013-05-28 20:15:00,67.5,64.4,29.62,North,0,0.0,0.0,90,0.00,,,-99.99,VWS V12.07,2013-05-29 01:15:00,
2013-05-28 20:25:00,67.3,64.2,29.62,North,0,0.0,0.0,90,0.00,,,-99.99,VWS V12.07,2013-05-29 01:25:00,
2013-05-28 20:30:00,67.3,64.2,29.62,North,0,0.0,0.0,90,0.00,,,-99.99,VWS V12.07,2013-05-29 01:30:00,
2013-05-28 20:35:00,67.3,64.2,29.62,North,0,0.0,0.0,90,0.00,,,-99.99,VWS V12.07,2013-05-29 01:35:00,
2013-05-28 20:40:00,67.3,64.2,29.62,North,0,0.0,0.0,90,0.00,,,-99.99,VWS V12.07,2013-05-29 01:40:00,
2013-05-28 20:45:00,67.3,64.2,29.62,North,0,0.0,0.0,90,0.00,,,-99.99,VWS V12.07,2013-05-29 01:45:00,
2013-05-28 20:55:00,67.1,64.1,29.62,North,0,0.0,0.0,90,0.00,,,-99.99,VWS V12.07,2013-05-29 01:55:00,
2013-05-28 21:00:00,67.1,64.1,29.62,North,0,0.0,0.0,90,0.00,,,-99.99,VWS V12.07,2013-05-29 02:00:00,
2013-05-28 21:10:00,67.1,64.1,29.65,North,0,0.0,0.0,90,0.00,,,-99.99,VWS V12.07,2013-05-29 02:10:00,
2013-05-28 21:15:00,67.1,64.1,29.65,North,0,0.0,0.0,90,0.00,,,-99.99,VWS V12.07,2013-05-29 02:15:00,
2013-05-28 21:20:00,67.1,64.4,29.65,North,0,0.0,0.0,91,0.00,,,-99.99,VWS V12.07,2013-05-29 02:20:00,
2013-05-28 21:25:00,67.1,64.4,29.65,North,0,0.0,0.0,91,0.00,,,-99.99,VWS V12.07,2013-05-29 02:25:00,
2013-05-28 21:30:00,66.9,64.2,29.65,North,0,0.0,0.0,91,0.00,,,-99.99,VWS V12.07,2013-05-29 02:30:00,
2013-05-28 21:35:00,66.9,64.2,29.67,North,0,0.0,0.0,91,0.00,,,-99.99,VWS V12.07,2013-05-29 02:35:00,
2013-05-28 21:40:00,66.9,64.2,29.67,North,0,0.0,0.0,91,0.00,,,-99.99,VWS V12.07,2013-05-29 02:40:00,
2013-05-28 21:45:00,66.9,64.2,29.67,North,0,0.0,0.0,91,0.00,,,-99.99,VWS V12.07,2013-05-29 02:45:00,
2013-05-28 21:51:00,66.7,64.0,29.65,North,0,0.0,0.0,91,0.00,,,-99.99,VWS V12.07,2013-05-29 02:51:00,
2013-05-28 22:00:00,66.6,63.9,29.65,North,0,0.0,0.0,91,0.00,,,-99.99,VWS V12.07,2013-05-29 03:00:00,
2013-05-28 22:10:00,66.6,63.9,29.67,North,0,0.0,0.0,91,0.00,,,-99.99,VWS V12.07,2013-05-29 03:10:00,
2013-05-28 22:15:00,66.4,63.7,29.67,North,0,0.0,0.0,91,0.00,,,-99.99,VWS V12.07,2013-05-29 03:15:00,
2013-05-28 22:20:00,66.4,63.7,29.67,North,0,0.0,0.0,91,0.00,,,-99.99,VWS V12.07,2013-05-29 03:20:00,
2013-05-28 22:26:00,66.4,63.7,29.67,North,0,0.0,0.0,91,0.00,,,-99.99,VWS V12.07,2013-05-29 03:26:00,
2013-05-28 22:35:00,66.4,63.7,29.67,North,0,0.0,0.0,91,0.00,,,-99.99,VWS V12.07,2013-05-29 03:35:00,
2013-05-28 22:40:00,66.4,63.7,29.67,North,0,0.0,0.0,91,0.00,,,-99.99,VWS V12.07,2013-05-29 03:40:00,
2013-05-28 22:45:00,66.2,63.5,29.67,North,0,0.0,0.0,91,0.00,,,-99.99,VWS V12.07,2013-05-29 03:45:00,
2013-05-28 22:50:00,66.0,63.6,29.65,North,0,0.0,0.0,92,0.00,,,-99.99,VWS V12.07,2013-05-29 03:50:00,
2013-05-28 22:55:00,66.0,63.6,29.65,North,0,0.0,0.0,92,0.00,,,-99.99,VWS V12.07,2013-05-29 03:55:00,
2013-05-28 23:05:00,65.7,63.3,29.67,North,0,0.0,0.0,92,0.00,,,-99.99,VWS V12.07,2013-05-29 04:05:00,
2013-05-28 23:10:00,65.7,63.3,29.67,North,0,0.0,0.0,92,0.00,,,-99.99,VWS V12.07,2013-05-29 04:10:00,
2013-05-28 23:15:00,65.7,63.3,29.67,North,0,0.0,0.0,92,0.00,,,-99.99,VWS V12.07,2013-05-29 04:15:00,
2013-05-28 23:20:00,65.7,63.3,29.67,North,0,0.0,0.0,92,0.00,,,-99.99,VWS V12.07,2013-05-29 04:20:00,
2013-05-28 23:26:00,65.7,63.3,29.67,North,0,0.0,0.0,92,0.00,,,-99.99,VWS V12.07,2013-05-29 04:26:00,
2013-05-28 23:35:00,65.5,63.1,29.67,North,0,0.0,0.0,92,0.00,,,-99.99,VWS V12.07,2013-05-29 04:35:00,
2013-05-28 23:40:00,65.3,62.9,29.67,North,0,0.0,0.0,92,0.00,,,-99.99,VWS V12.07,2013-05-29 04:40:00,
2013-05-28 23:45:00,65.3,62.9,29.67,North,0,0.0,0.0,92,0.00,,,-99.99,VWS V12.07,2013-05-29 04:45:00,
2013-05-28 23:50:00,65.1,62.7,29.67,North,0,0.0,0.0,92,0.00,,,-99.99,VWS V12.07,2013-05-29 04:50:00,
2013-05-28 23:55:00,65.1,62.7,29.67,North,0,0.0,0.0,92,0.00,,,-99.99,VWS V12.07,2013-05-29 04:55:00,